createdAt,value
2023-10-13T05:00:43.045Z,1002.24
2023-10-13T05:01:43.031Z,1002.16
2023-10-13T05:02:43.028Z,1002.24
2023-10-13T05:03:42.971Z,1002.22
2023-10-13T05:04:43.004Z,1002.20
2023-10-13T05:05:42.927Z,1002.28
2023-10-13T05:06:42.954Z,1002.27
2023-10-13T05:07:42.936Z,1002.31
2023-10-13T05:08:44.578Z,1002.29
2023-10-13T05:09:42.881Z,1002.32
2023-10-13T05:10:42.927Z,1002.24
2023-10-13T05:11:47.966Z,1002.26
2023-10-13T05:12:42.857Z,1002.27
2023-10-13T05:13:42.948Z,1002.20
2023-10-13T05:14:42.844Z,1002.15
2023-10-13T05:15:42.822Z,1002.24
2023-10-13T05:16:43.020Z,1002.18
2023-10-13T05:17:43.017Z,1002.13
2023-10-13T05:18:42.782Z,1002.15
2023-10-13T05:19:42.834Z,1002.17
2023-10-13T05:20:42.780Z,1002.18
2023-10-13T05:21:42.777Z,1002.21
2023-10-13T05:22:47.877Z,1002.13
2023-10-13T05:23:42.726Z,1002.12
2023-10-13T05:24:42.718Z,1002.18
2023-10-13T05:25:42.722Z,1002.08
2023-10-13T05:26:42.715Z,1002.12
2023-10-13T05:27:42.681Z,1002.08
2023-10-13T05:28:42.788Z,1002.12
2023-10-13T05:29:42.716Z,1002.09
2023-10-13T05:30:42.671Z,1002.11
2023-10-13T05:31:42.777Z,1001.98
2023-10-13T05:32:42.774Z,1002.04
2023-10-13T05:33:47.646Z,1001.99
2023-10-13T05:34:42.698Z,1001.98
2023-10-13T05:35:42.589Z,1002.01
2023-10-13T05:36:42.588Z,1002.04
2023-10-13T05:37:42.704Z,1001.97
2023-10-13T05:38:42.565Z,1002.03
2023-10-13T05:39:42.555Z,1002.03
2023-10-13T05:40:42.682Z,1001.99
2023-10-13T05:41:42.531Z,1001.97
2023-10-13T05:42:42.528Z,1002.01
2023-10-13T05:43:42.585Z,1001.95
2023-10-13T05:44:47.529Z,1001.96
2023-10-13T05:45:42.485Z,1001.93
2023-10-13T05:46:42.572Z,1001.95
2023-10-13T05:47:42.629Z,1001.97
2023-10-13T05:48:42.581Z,1001.94
2023-10-13T05:49:42.475Z,1001.96
2023-10-13T05:50:42.427Z,1001.98
2023-10-13T05:51:42.420Z,1001.99
2023-10-13T05:52:42.549Z,1001.94
2023-10-13T05:53:42.402Z,1001.97
2023-10-13T05:54:42.391Z,1001.87
2023-10-13T05:55:47.418Z,1001.88
2023-10-13T05:56:42.380Z,1001.95
2023-10-13T05:57:42.344Z,1001.88
2023-10-13T05:58:42.438Z,1001.95
2023-10-13T05:59:42.330Z,1001.90
2023-10-13T06:00:42.314Z,1001.91
2023-10-13T06:01:42.346Z,1001.86
2023-10-13T06:02:42.542Z,1001.84
2023-10-13T06:03:42.331Z,1001.87
2023-10-13T06:04:42.392Z,1001.84
2023-10-13T06:05:42.258Z,1001.84
2023-10-13T06:06:47.271Z,1001.83
2023-10-13T06:07:42.329Z,1001.83
2023-10-13T06:08:42.233Z,1001.85
2023-10-13T06:09:42.214Z,1001.79
2023-10-13T06:10:42.279Z,1001.85
2023-10-13T06:11:42.282Z,1001.84
2023-10-13T06:12:42.181Z,1001.80
2023-10-13T06:13:42.228Z,1001.80
2023-10-13T06:14:42.163Z,1001.82
2023-10-13T06:15:42.147Z,1001.84
2023-10-13T06:16:42.221Z,1001.91
2023-10-13T06:17:47.265Z,1001.84
2023-10-13T06:18:42.122Z,1001.88
2023-10-13T06:19:42.162Z,1001.91
2023-10-13T06:20:42.125Z,1001.91
2023-10-13T06:21:42.083Z,1001.99
2023-10-13T06:22:42.115Z,1001.93
2023-10-13T06:23:42.138Z,1001.95
2023-10-13T06:24:42.048Z,1002.05
2023-10-13T06:25:44.431Z,1001.99
2023-10-13T06:26:42.023Z,1001.94
2023-10-13T06:27:42.046Z,1002.01
2023-10-13T06:28:47.172Z,1002.02
2023-10-13T06:29:42.070Z,1001.98
2023-10-13T06:30:41.985Z,1002.02
2023-10-13T06:31:42.055Z,1002.10
2023-10-13T06:32:42.143Z,1002.01
2023-10-13T06:33:41.951Z,1001.99
2023-10-13T06:34:41.996Z,1002.04
2023-10-13T06:35:41.973Z,1001.99
2023-10-13T06:36:41.947Z,1002.00
2023-10-13T06:37:41.950Z,1002.06
2023-10-13T06:38:41.900Z,1002.01
2023-10-13T06:39:46.903Z,1002.00
2023-10-13T06:40:41.909Z,1002.06
2023-10-13T06:41:41.974Z,1002.12
2023-10-13T06:42:41.849Z,1002.08
2023-10-13T06:43:41.944Z,1002.15
2023-10-13T06:44:41.827Z,1002.08
2023-10-13T06:45:41.862Z,1002.15
2023-10-13T06:46:41.905Z,1002.16
2023-10-13T06:47:41.859Z,1002.13
2023-10-13T06:48:41.779Z,1002.18
2023-10-13T06:49:41.793Z,1002.24
2023-10-13T06:50:46.790Z,1002.18
2023-10-13T06:51:41.767Z,1002.18
2023-10-13T06:52:41.774Z,1002.26
2023-10-13T06:53:41.798Z,1002.33
2023-10-13T06:54:41.715Z,1002.25
2023-10-13T06:55:41.785Z,1002.21
2023-10-13T06:56:41.723Z,1002.20
2023-10-13T06:57:41.685Z,1002.25
2023-10-13T06:58:41.738Z,1002.19
2023-10-13T06:59:41.737Z,1002.20
2023-10-13T07:00:41.658Z,1002.11
2023-10-13T07:01:46.728Z,1002.14
2023-10-13T07:02:41.862Z,1002.17
2023-10-13T07:03:41.703Z,1002.15
2023-10-13T07:04:41.694Z,1002.09
2023-10-13T07:05:41.749Z,1002.11
2023-10-13T07:06:41.585Z,1002.11
2023-10-13T07:07:41.629Z,1002.05
2023-10-13T07:08:41.585Z,1002.12
2023-10-13T07:09:41.561Z,1002.09
2023-10-13T07:10:41.560Z,1002.08
2023-10-13T07:11:41.602Z,1002.14
2023-10-13T07:12:46.544Z,1002.03
2023-10-13T07:13:41.554Z,1002.00
2023-10-13T07:14:41.575Z,1002.09
2023-10-13T07:15:41.494Z,1002.13
2023-10-13T07:16:41.601Z,1002.07
2023-10-13T07:17:41.766Z,1002.11
2023-10-13T07:18:41.450Z,1002.15
2023-10-13T07:19:41.467Z,1002.05
2023-10-13T07:20:41.429Z,1002.10
2023-10-13T07:21:41.422Z,1002.12
2023-10-13T07:22:41.642Z,1002.09
2023-10-13T07:23:46.520Z,1002.12
2023-10-13T07:24:41.393Z,1002.06
2023-10-13T07:25:41.450Z,1001.95
2023-10-13T07:26:41.364Z,1002.11
2023-10-13T07:27:41.354Z,1002.10
2023-10-13T07:28:41.426Z,1002.07
2023-10-13T07:29:41.421Z,1002.12
2023-10-13T07:30:41.317Z,1002.15
2023-10-13T07:31:41.357Z,1002.13
2023-10-13T07:32:41.334Z,1002.09
2023-10-13T07:33:41.287Z,1002.09
2023-10-13T07:34:46.330Z,1002.05
2023-10-13T07:35:41.313Z,1002.11
2023-10-13T07:36:41.259Z,1001.94
2023-10-13T07:37:41.272Z,1002.03
2023-10-13T07:38:41.228Z,1002.07
2023-10-13T07:39:41.256Z,1002.02
2023-10-13T07:40:41.378Z,1002.01
2023-10-13T07:41:41.225Z,1002.01
2023-10-13T07:42:41.211Z,1001.99
2023-10-13T07:43:41.219Z,1001.95
2023-10-13T07:44:41.173Z,1001.98
2023-10-13T07:45:46.287Z,1001.91
2023-10-13T07:46:41.231Z,1001.95
2023-10-13T07:47:41.236Z,1001.92
2023-10-13T07:48:41.113Z,1001.99
2023-10-13T07:49:41.302Z,1001.97
2023-10-13T07:50:41.090Z,1002.03
2023-10-13T07:51:41.086Z,1001.99
2023-10-13T07:52:41.117Z,1002.00
2023-10-13T07:53:41.117Z,1001.98
2023-10-13T07:54:41.058Z,1001.98
2023-10-13T07:55:41.216Z,1001.96
2023-10-13T07:56:46.065Z,1001.90
2023-10-13T07:57:41.014Z,1001.86
2023-10-13T07:58:41.040Z,1001.88
2023-10-13T07:59:41.062Z,1001.88
2023-10-13T08:00:40.981Z,1001.94
2023-10-13T08:01:41.037Z,1001.93
2023-10-13T08:02:41.035Z,1001.90
2023-10-13T08:03:40.977Z,1001.98
2023-10-13T08:04:40.964Z,1001.97
2023-10-13T08:05:40.980Z,1001.98
2023-10-13T08:06:40.912Z,1001.91
2023-10-13T08:07:45.949Z,1001.93
2023-10-13T08:08:41.202Z,1001.95
2023-10-13T08:09:40.882Z,1001.96
2023-10-13T08:10:40.923Z,1001.91
2023-10-13T08:11:41.280Z,1001.85
2023-10-13T08:12:40.844Z,1001.90
2023-10-13T08:13:51.563Z,1001.90
2023-10-13T08:14:40.870Z,1001.92
2023-10-13T08:15:40.819Z,1001.92
2023-10-13T08:16:40.858Z,1001.90
2023-10-13T08:17:40.893Z,1001.93
2023-10-13T08:18:45.810Z,1001.90
2023-10-13T08:19:41.069Z,1001.93
2023-10-13T08:20:40.759Z,1001.87
2023-10-13T08:21:40.750Z,1001.95
2023-10-13T08:22:40.783Z,1001.97
2023-10-13T08:23:40.761Z,1001.96
2023-10-13T08:24:40.832Z,1001.97
2023-10-13T08:25:40.757Z,1002.04
2023-10-13T08:26:40.699Z,1001.91
2023-10-13T08:27:40.712Z,1001.94
2023-10-13T08:29:45.685Z,1001.96
2023-10-13T08:30:40.671Z,1001.92
2023-10-13T08:31:40.699Z,1001.91
2023-10-13T08:32:40.651Z,1001.97
2023-10-13T08:33:40.616Z,1001.95
2023-10-13T08:34:40.635Z,1001.98
2023-10-13T08:35:40.595Z,1001.91
2023-10-13T08:36:40.631Z,1001.98
2023-10-13T08:37:40.588Z,1001.94
2023-10-13T08:38:40.561Z,1001.92
2023-10-13T08:39:40.574Z,1001.97
2023-10-13T08:40:45.594Z,1002.02
2023-10-13T08:41:40.537Z,1002.03
2023-10-13T08:42:40.520Z,1002.02
2023-10-13T08:43:40.588Z,1002.01
2023-10-13T08:44:45.660Z,1001.98
2023-10-13T08:45:41.570Z,1002.00
2023-10-13T08:46:40.477Z,1001.96
2023-10-13T08:47:40.513Z,1001.95
2023-10-13T08:48:40.456Z,1001.91
2023-10-13T08:49:40.476Z,1001.94
2023-10-13T08:50:40.433Z,1001.92
2023-10-13T08:51:45.453Z,1001.95
2023-10-13T08:52:40.434Z,1001.95
2023-10-13T08:53:40.394Z,1001.92
2023-10-13T08:54:40.512Z,1001.93
2023-10-13T08:55:40.448Z,1001.91
2023-10-13T08:56:40.376Z,1001.92
2023-10-13T08:57:40.357Z,1001.84
2023-10-13T08:58:40.389Z,1001.89
2023-10-13T08:59:40.554Z,1001.80
2023-10-13T09:00:40.324Z,1001.87
2023-10-13T09:01:40.434Z,1001.87
2023-10-13T09:02:45.371Z,1001.80
2023-10-13T09:03:40.394Z,1001.80
2023-10-13T09:04:40.279Z,1001.78
2023-10-13T09:05:40.265Z,1001.77
2023-10-13T09:06:40.246Z,1001.75
2023-10-13T09:07:52.513Z,1001.72
2023-10-13T09:08:40.261Z,1001.76
2023-10-13T09:09:40.215Z,1001.75
2023-10-13T09:10:40.219Z,1001.63
2023-10-13T09:11:40.191Z,1001.72
2023-10-13T09:12:40.176Z,1001.55
2023-10-13T09:13:45.592Z,1001.62
2023-10-13T09:14:40.227Z,1001.56
2023-10-13T09:15:40.204Z,1001.60
2023-10-13T09:16:40.196Z,1001.57
2023-10-13T09:17:40.145Z,1001.57
2023-10-13T09:18:40.112Z,1001.50
2023-10-13T09:19:40.139Z,1001.53
2023-10-13T09:20:40.104Z,1001.54
2023-10-13T09:21:40.085Z,1001.52
2023-10-13T09:22:40.086Z,1001.57
2023-10-13T09:23:40.056Z,1001.52
2023-10-13T09:24:45.077Z,1001.45
2023-10-13T09:25:40.068Z,1001.46
2023-10-13T09:26:40.110Z,1001.43
2023-10-13T09:27:40.013Z,1001.40
2023-10-13T09:28:40.044Z,1001.40
2023-10-13T09:29:40.159Z,1001.40
2023-10-13T09:30:39.988Z,1001.39
2023-10-13T09:31:40.039Z,1001.32
2023-10-13T09:32:40.010Z,1001.32
2023-10-13T09:33:39.947Z,1001.27
2023-10-13T09:34:39.980Z,1001.26
2023-10-13T09:35:44.948Z,1001.24
2023-10-13T09:36:39.915Z,1001.21
2023-10-13T09:37:39.943Z,1001.23
2023-10-13T09:38:39.924Z,1001.23
2023-10-13T09:39:39.892Z,1001.24
2023-10-13T09:40:39.921Z,1001.25
2023-10-13T09:41:39.868Z,1001.18
2023-10-13T09:42:39.847Z,1001.19
2023-10-13T09:43:39.853Z,1001.16
2023-10-13T09:44:39.874Z,1001.10
2023-10-13T09:45:39.937Z,1001.06
2023-10-13T09:46:44.897Z,1001.07
2023-10-13T09:47:39.911Z,1001.06
2023-10-13T09:48:39.840Z,1001.11
2023-10-13T09:49:39.802Z,1001.05
2023-10-13T09:50:39.809Z,1001.03
2023-10-13T09:51:39.752Z,1001.01
2023-10-13T09:52:39.763Z,1001.06
2023-10-13T09:53:52.250Z,1001.02
2023-10-13T09:54:44.670Z,1001.01
2023-10-13T09:55:39.762Z,1001.06
2023-10-13T09:56:39.747Z,1000.99
2023-10-13T09:57:44.714Z,1001.01
2023-10-13T09:58:39.693Z,1001.08
2023-10-13T09:59:39.660Z,1001.00
2023-10-13T10:00:39.689Z,1001.02
2023-10-13T10:01:39.688Z,1000.99
2023-10-13T10:02:39.798Z,1000.94
2023-10-13T10:03:39.704Z,1001.02
2023-10-13T10:04:39.620Z,1001.04
2023-10-13T10:05:39.722Z,1001.03
2023-10-13T10:06:39.581Z,1001.06
2023-10-13T10:07:39.630Z,1001.04
2023-10-13T10:08:44.637Z,1000.96
2023-10-13T10:09:39.593Z,1000.99
2023-10-13T10:10:39.577Z,1001.02
2023-10-13T10:11:41.373Z,1001.00
2023-10-13T10:12:39.528Z,1001.04
2023-10-13T10:13:39.525Z,1001.00
2023-10-13T10:14:39.495Z,1000.96
2023-10-13T10:15:39.610Z,1000.99
2023-10-13T10:16:39.524Z,1000.91
2023-10-13T10:17:39.509Z,1001.01
2023-10-13T10:18:39.467Z,1001.06
2023-10-13T10:19:44.481Z,1001.03
2023-10-13T10:20:39.431Z,1000.96
2023-10-13T10:21:39.445Z,1001.07
2023-10-13T10:22:39.448Z,1001.02
2023-10-13T10:23:39.395Z,1000.95
2023-10-13T10:24:39.388Z,1000.90
2023-10-13T10:25:39.456Z,1000.92
2023-10-13T10:26:39.374Z,1001.03
2023-10-13T10:27:39.419Z,1000.97
2023-10-13T10:28:39.387Z,1000.95
2023-10-13T10:29:39.335Z,1001.00
2023-10-13T10:30:44.341Z,1000.85
2023-10-13T10:31:39.395Z,1000.94
2023-10-13T10:32:39.318Z,1000.93
2023-10-13T10:33:39.338Z,1000.88
2023-10-13T10:34:39.290Z,1000.90
2023-10-13T10:35:39.263Z,1000.81
2023-10-13T10:36:39.268Z,1000.81
2023-10-13T10:37:39.290Z,1000.80
2023-10-13T10:38:39.239Z,1000.80
2023-10-13T10:39:39.275Z,1000.77
2023-10-13T10:40:39.292Z,1000.74
2023-10-13T10:41:44.277Z,1000.83
2023-10-13T10:42:39.186Z,1000.72
2023-10-13T10:43:39.187Z,1000.76
2023-10-13T10:44:39.166Z,1000.72
2023-10-13T10:45:39.208Z,1000.71
2023-10-13T10:46:39.271Z,1000.76
2023-10-13T10:47:39.273Z,1000.61
2023-10-13T10:48:39.154Z,1000.58
2023-10-13T10:49:39.233Z,1000.61
2023-10-13T10:50:39.129Z,1000.58
2023-10-13T10:51:39.117Z,1000.55
2023-10-13T10:52:44.219Z,1000.68
2023-10-13T10:53:39.060Z,1000.59
2023-10-13T10:54:39.057Z,1000.52
2023-10-13T10:55:39.073Z,1000.63
2023-10-13T10:56:39.036Z,1000.50
2023-10-13T10:57:39.028Z,1000.50
2023-10-13T10:58:39.055Z,1000.49
2023-10-13T10:59:39.005Z,1000.44
2023-10-13T11:00:39.022Z,1000.41
2023-10-13T11:01:38.996Z,1000.40
2023-10-13T11:02:39.063Z,1000.33
2023-10-13T11:03:44.017Z,1000.37
2023-10-13T11:04:38.966Z,1000.32
2023-10-13T11:05:38.954Z,1000.41
2023-10-13T11:06:38.942Z,1000.35
2023-10-13T11:07:39.050Z,1000.31
2023-10-13T11:08:38.964Z,1000.32
2023-10-13T11:09:38.905Z,1000.34
2023-10-13T11:10:38.905Z,1000.31
2023-10-13T11:11:38.880Z,1000.36
2023-10-13T11:12:38.868Z,1000.28
2023-10-13T11:13:38.917Z,1000.28
2023-10-13T11:14:43.903Z,1000.24
2023-10-13T11:15:38.828Z,1000.33
2023-10-13T11:16:38.886Z,1000.23
2023-10-13T11:17:38.867Z,1000.27
2023-10-13T11:18:38.790Z,1000.22
2023-10-13T11:19:38.975Z,1000.22
2023-10-13T11:20:38.770Z,1000.26
2023-10-13T11:21:38.931Z,1000.32
2023-10-13T11:22:38.796Z,1000.25
2023-10-13T11:23:38.750Z,1000.21
2023-10-13T11:24:38.733Z,1000.28
2023-10-13T11:25:43.761Z,1000.18
2023-10-13T11:26:38.761Z,1000.13
2023-10-13T11:27:38.718Z,1000.17
2023-10-13T11:28:38.701Z,1000.18
2023-10-13T11:29:38.671Z,1000.18
2023-10-13T11:30:38.695Z,1000.09
2023-10-13T11:31:38.691Z,1000.09
2023-10-13T11:32:38.661Z,1000.08
2023-10-13T11:33:38.636Z,1000.20
2023-10-13T11:34:38.646Z,1000.13
2023-10-13T11:35:38.602Z,1000.18
2023-10-13T11:36:43.633Z,1000.08
2023-10-13T11:37:38.714Z,1000.07
2023-10-13T11:38:38.603Z,1000.11
2023-10-13T11:39:38.565Z,1000.07
2023-10-13T11:40:38.666Z,1000.04
2023-10-13T11:41:38.551Z,1000.06
2023-10-13T11:42:38.551Z,1000.06
2023-10-13T11:43:38.562Z,999.93
2023-10-13T11:44:38.514Z,999.96
2023-10-13T11:45:38.498Z,999.97
2023-10-13T11:46:39.166Z,999.94
2023-10-13T11:47:43.612Z,999.93
2023-10-13T11:48:38.475Z,999.84
2023-10-13T11:49:38.666Z,999.84
2023-10-13T11:50:38.447Z,999.93
2023-10-13T11:51:38.442Z,999.92
2023-10-13T11:52:38.453Z,999.87
2023-10-13T11:53:38.448Z,999.79
2023-10-13T11:54:38.419Z,999.82
2023-10-13T11:55:38.513Z,999.85
2023-10-13T11:56:38.378Z,999.85
2023-10-13T11:57:38.387Z,999.81
2023-10-13T11:58:43.409Z,999.75
2023-10-13T11:59:38.338Z,999.78
2023-10-13T12:00:38.351Z,999.78
2023-10-13T12:01:38.388Z,999.71
2023-10-13T12:02:38.423Z,999.64
2023-10-13T12:03:38.359Z,999.75
2023-10-13T12:04:38.357Z,999.67
2023-10-13T12:05:38.279Z,999.68
2023-10-13T12:06:38.291Z,999.61
2023-10-13T12:07:38.315Z,999.62
2023-10-13T12:08:38.280Z,999.70
2023-10-13T12:09:43.831Z,999.66
2023-10-13T12:10:38.249Z,999.72
2023-10-13T12:11:38.251Z,999.69
2023-10-13T12:12:38.210Z,999.68
2023-10-13T12:13:38.205Z,999.55
2023-10-13T12:14:38.196Z,999.65
2023-10-13T12:15:38.255Z,999.68
2023-10-13T12:16:38.219Z,999.60
2023-10-13T12:17:38.317Z,999.54
2023-10-13T12:18:38.196Z,999.65
2023-10-13T12:19:38.149Z,999.44
2023-10-13T12:20:43.146Z,999.44
2023-10-13T12:21:38.144Z,999.47
2023-10-13T12:22:38.138Z,999.50
2023-10-13T12:23:38.079Z,999.44
2023-10-13T12:24:38.207Z,999.51
2023-10-13T12:25:38.135Z,999.49
2023-10-13T12:26:38.055Z,999.49
2023-10-13T12:27:38.166Z,999.38
2023-10-13T12:28:38.099Z,999.36
2023-10-13T12:29:38.099Z,999.30
2023-10-13T12:30:38.027Z,999.43
2023-10-13T12:31:38.042Z,999.31
2023-10-13T12:32:38.043Z,999.31
2023-10-13T12:33:43.015Z,999.32
2023-10-13T12:34:38.049Z,999.30
2023-10-13T12:35:38.011Z,999.15
2023-10-13T12:36:37.939Z,999.20
2023-10-13T12:37:38.008Z,999.18
2023-10-13T12:38:37.954Z,999.22
2023-10-13T12:39:37.921Z,999.19
2023-10-13T12:40:37.988Z,999.26
2023-10-13T12:41:37.960Z,999.19
2023-10-13T12:42:37.882Z,999.15
2023-10-13T12:43:37.907Z,999.19
2023-10-13T12:44:37.869Z,999.18
2023-10-13T12:45:37.851Z,999.15
2023-10-13T12:46:42.946Z,999.11
2023-10-13T12:47:37.905Z,999.10
2023-10-13T12:48:37.956Z,999.06
2023-10-13T12:49:37.894Z,999.12
2023-10-13T12:50:37.787Z,999.02
2023-10-13T12:51:37.773Z,999.00
2023-10-13T12:52:37.825Z,998.99
2023-10-13T12:53:37.763Z,999.03
2023-10-13T12:54:37.744Z,998.98
2023-10-13T12:55:37.820Z,999.03
2023-10-13T12:56:37.741Z,999.00
2023-10-13T12:57:37.731Z,998.97
2023-10-13T12:58:37.761Z,998.97
2023-10-13T12:59:42.735Z,999.06
2023-10-13T13:00:37.721Z,999.03
2023-10-13T13:01:37.696Z,999.04
2023-10-13T13:02:37.822Z,999.04
2023-10-13T13:03:37.690Z,999.04
2023-10-13T13:04:37.760Z,998.94
2023-10-13T13:05:37.636Z,999.06
2023-10-13T13:06:37.618Z,999.02
2023-10-13T13:07:37.629Z,999.01
2023-10-13T13:08:37.629Z,999.00
2023-10-13T13:09:37.611Z,998.96
2023-10-13T13:10:37.761Z,998.99
2023-10-13T13:11:37.588Z,998.95
2023-10-13T13:12:42.639Z,998.93
2023-10-13T13:13:37.601Z,998.97
2023-10-13T13:14:37.567Z,999.02
2023-10-13T13:15:37.517Z,998.98
2023-10-13T13:16:37.590Z,998.95
2023-10-13T13:17:37.708Z,998.91
2023-10-13T13:18:37.556Z,998.90
2023-10-13T13:19:37.860Z,998.90
2023-10-13T13:20:37.480Z,998.87
2023-10-13T13:21:37.453Z,998.85
2023-10-13T13:22:37.478Z,998.83
2023-10-13T13:23:37.442Z,998.87
2023-10-13T13:24:37.428Z,998.84
2023-10-13T13:25:42.478Z,998.74
2023-10-13T13:26:37.395Z,998.74
2023-10-13T13:27:37.394Z,998.76
2023-10-13T13:28:37.437Z,998.71
2023-10-13T13:29:37.383Z,998.75
2023-10-13T13:30:37.416Z,998.73
2023-10-13T13:31:37.392Z,998.74
2023-10-13T13:32:37.367Z,998.71
2023-10-13T13:33:37.334Z,998.70
2023-10-13T13:34:37.345Z,998.63
2023-10-13T13:35:37.306Z,998.62
2023-10-13T13:36:42.332Z,998.65
2023-10-13T13:37:37.321Z,998.63
2023-10-13T13:38:37.268Z,998.63
2023-10-13T13:39:37.271Z,998.59
2023-10-13T13:40:37.259Z,998.47
2023-10-13T13:41:37.249Z,998.52
2023-10-13T13:42:37.238Z,998.44
2023-10-13T13:43:37.342Z,998.41
2023-10-13T13:44:37.364Z,998.39
2023-10-13T13:45:37.207Z,998.38
2023-10-13T13:46:37.321Z,998.32
2023-10-13T13:47:42.261Z,998.32
2023-10-13T13:48:37.155Z,998.26
2023-10-13T13:49:37.175Z,998.28
2023-10-13T13:50:37.144Z,998.28
2023-10-13T13:51:37.146Z,998.25
2023-10-13T13:52:37.130Z,998.23
2023-10-13T13:53:37.160Z,998.24
2023-10-13T13:54:37.092Z,998.16
2023-10-13T13:55:37.118Z,998.16
2023-10-13T13:56:37.078Z,998.15
2023-10-13T13:57:37.099Z,998.14
2023-10-13T13:58:42.091Z,998.10
2023-10-13T13:59:37.050Z,998.14
2023-10-13T14:00:37.060Z,998.12
2023-10-13T14:01:37.077Z,998.03
2023-10-13T14:02:37.154Z,998.14
2023-10-13T14:03:37.073Z,998.09
2023-10-13T14:04:37.100Z,998.06
2023-10-13T14:05:37.001Z,998.12
2023-10-13T14:06:36.961Z,998.04
2023-10-13T14:07:36.974Z,998.07
2023-10-13T14:08:36.948Z,998.00
2023-10-13T14:09:41.971Z,997.98
2023-10-13T14:10:36.984Z,997.98
2023-10-13T14:11:36.932Z,997.90
2023-10-13T14:12:36.920Z,997.93
2023-10-13T14:13:36.928Z,997.94
2023-10-13T14:14:36.897Z,997.88
2023-10-13T14:15:36.902Z,997.93
2023-10-13T14:16:36.925Z,997.86
2023-10-13T14:17:37.249Z,997.82
2023-10-13T14:18:36.911Z,997.88
2023-10-13T14:19:36.845Z,997.82
2023-10-13T14:20:41.841Z,997.81
2023-10-13T14:21:36.794Z,997.82
2023-10-13T14:22:36.791Z,997.83
2023-10-13T14:23:36.803Z,997.81
2023-10-13T14:24:36.882Z,997.75
2023-10-13T14:25:36.782Z,997.72
2023-10-13T14:26:36.798Z,997.75
2023-10-13T14:27:36.732Z,997.76
2023-10-13T14:28:36.809Z,997.71
2023-10-13T14:29:36.706Z,997.71
2023-10-13T14:30:36.720Z,997.64
2023-10-13T14:31:41.762Z,997.62
2023-10-13T14:32:36.743Z,997.68
2023-10-13T14:33:36.681Z,997.57
2023-10-13T14:34:36.697Z,997.67
2023-10-13T14:35:36.666Z,997.62
2023-10-13T14:36:36.668Z,997.63
2023-10-13T14:37:36.656Z,997.61
2023-10-13T14:38:36.617Z,997.63
2023-10-13T14:39:36.597Z,997.56
2023-10-13T14:40:36.652Z,997.56
2023-10-13T14:41:36.581Z,997.55
2023-10-13T14:42:41.689Z,997.58
2023-10-13T14:43:36.607Z,997.59
2023-10-13T14:44:36.540Z,997.53
2023-10-13T14:45:36.543Z,997.53
2023-10-13T14:46:36.639Z,997.56
2023-10-13T14:47:36.609Z,997.53
2023-10-13T14:48:36.502Z,997.48
2023-10-13T14:49:36.560Z,997.52
2023-10-13T14:50:36.498Z,997.42
2023-10-13T14:51:36.517Z,997.46
2023-10-13T14:52:36.577Z,997.41
2023-10-13T14:53:41.680Z,997.45
2023-10-13T14:54:36.434Z,997.43
2023-10-13T14:55:36.505Z,997.37
2023-10-13T14:56:36.445Z,997.34
2023-10-13T14:57:36.413Z,997.31
2023-10-13T14:58:36.437Z,997.33
2023-10-13T14:59:36.380Z,997.39
2023-10-13T15:00:36.374Z,997.36
2023-10-13T15:01:36.465Z,997.36
2023-10-13T15:02:36.397Z,997.28
2023-10-13T15:03:36.426Z,997.27
2023-10-13T15:04:41.460Z,997.25
2023-10-13T15:05:36.364Z,997.30
2023-10-13T15:06:36.329Z,997.22
2023-10-13T15:07:36.322Z,997.26
2023-10-13T15:08:36.294Z,997.22
2023-10-13T15:09:36.281Z,997.15
2023-10-13T15:10:36.319Z,997.12
2023-10-13T15:11:39.307Z,997.07
2023-10-13T15:12:36.240Z,997.14
2023-10-13T15:13:36.243Z,997.01
2023-10-13T15:14:36.237Z,996.98
2023-10-13T15:15:41.260Z,996.96
2023-10-13T15:16:36.254Z,996.88
2023-10-13T15:17:36.297Z,996.94
2023-10-13T15:18:36.163Z,996.90
2023-10-13T15:19:36.212Z,996.93
2023-10-13T15:20:36.211Z,996.85
2023-10-13T15:21:36.189Z,996.92
2023-10-13T15:22:36.178Z,996.88
2023-10-13T15:23:36.132Z,996.90
2023-10-13T15:24:36.284Z,996.88
2023-10-13T15:25:36.155Z,996.82
2023-10-13T15:26:41.105Z,996.80
2023-10-13T15:27:36.096Z,996.83
2023-10-13T15:28:36.095Z,996.73
2023-10-13T15:29:36.067Z,996.73
2023-10-13T15:30:36.036Z,996.73
2023-10-13T15:31:36.098Z,996.76
2023-10-13T15:32:36.095Z,996.77
2023-10-13T15:33:36.094Z,996.77
2023-10-13T15:34:36.066Z,996.80
2023-10-13T15:35:36.038Z,996.76
2023-10-13T15:36:35.997Z,996.74
2023-10-13T15:37:40.996Z,996.71
2023-10-13T15:38:35.970Z,996.69
2023-10-13T15:39:35.938Z,996.69
2023-10-13T15:40:35.948Z,996.73
2023-10-13T15:41:35.922Z,996.66
2023-10-13T15:42:35.903Z,996.73
2023-10-13T15:43:35.957Z,996.72
2023-10-13T15:44:35.885Z,996.73
2023-10-13T15:45:35.872Z,996.69
2023-10-13T15:48:40.932Z,996.57
2023-10-13T15:49:36.181Z,996.66
2023-10-13T15:50:35.974Z,996.60
2023-10-13T15:51:35.833Z,996.64
2023-10-13T15:52:35.824Z,996.62
2023-10-13T15:53:35.814Z,996.56
2023-10-13T15:54:35.816Z,996.59
2023-10-13T15:55:35.788Z,996.51
2023-10-13T15:56:35.779Z,996.55
2023-10-13T15:57:35.859Z,996.49
2023-10-13T15:58:35.736Z,996.43
2023-10-13T15:59:40.749Z,996.51
2023-10-13T16:00:35.746Z,996.52
2023-10-13T16:01:35.776Z,996.49
2023-10-13T16:02:35.731Z,996.52
2023-10-13T16:03:35.821Z,996.50
2023-10-13T16:04:35.768Z,996.47
2023-10-13T16:05:36.219Z,996.48
2023-10-13T16:06:35.691Z,996.47
2023-10-13T16:07:35.654Z,996.52
2023-10-13T16:08:35.710Z,996.50
2023-10-13T16:09:35.655Z,996.43
2023-10-13T16:10:40.630Z,996.39
2023-10-13T16:11:35.625Z,996.41
2023-10-13T16:12:35.615Z,996.34
2023-10-13T16:13:35.570Z,996.37
2023-10-13T16:14:35.650Z,996.33
2023-10-13T16:15:35.590Z,996.41
2023-10-13T16:16:35.542Z,996.43
2023-10-13T16:17:35.580Z,996.34
2023-10-13T16:18:35.514Z,996.30
2023-10-13T16:19:35.504Z,996.29
2023-10-13T16:20:35.547Z,996.27
2023-10-13T16:21:40.609Z,996.28
2023-10-13T16:22:35.463Z,996.27
2023-10-13T16:23:35.480Z,996.34
2023-10-13T16:24:35.500Z,996.25
2023-10-13T16:25:35.500Z,996.23
2023-10-13T16:26:35.428Z,996.26
2023-10-13T16:27:35.534Z,996.14
2023-10-13T16:28:35.404Z,996.14
2023-10-13T16:29:35.466Z,996.15
2023-10-13T16:30:35.389Z,996.13
2023-10-13T16:31:35.417Z,996.17
2023-10-13T16:32:40.484Z,996.19
2023-10-13T16:33:35.365Z,996.10
2023-10-13T16:34:35.437Z,996.19
2023-10-13T16:35:35.327Z,996.15
2023-10-13T16:36:35.393Z,996.16
2023-10-13T16:37:35.332Z,996.13
2023-10-13T16:38:35.327Z,996.13
2023-10-13T16:39:35.382Z,996.10
2023-10-13T16:40:35.268Z,996.18
2023-10-13T16:41:35.262Z,996.11
2023-10-13T16:42:35.321Z,996.13
2023-10-13T16:43:40.271Z,996.13
2023-10-13T16:44:35.259Z,996.18
2023-10-13T16:45:35.223Z,996.10
2023-10-13T16:46:35.238Z,996.15
2023-10-13T16:47:35.215Z,996.09
2023-10-13T16:48:35.210Z,996.10
2023-10-13T16:49:35.186Z,996.08
2023-10-13T16:50:35.233Z,996.05
2023-10-13T16:51:35.191Z,996.08
2023-10-13T16:52:35.154Z,996.09
2023-10-13T16:53:35.153Z,996.08
2023-10-13T16:54:40.234Z,996.13
2023-10-13T16:55:35.119Z,996.07
2023-10-13T16:56:35.089Z,996.07
2023-10-13T16:57:35.207Z,996.04
2023-10-13T16:58:35.085Z,996.04
2023-10-13T16:59:35.066Z,996.07
2023-10-13T17:00:35.065Z,996.11
2023-10-13T17:01:35.061Z,996.01
2023-10-13T17:02:35.120Z,996.01
2023-10-13T17:03:35.238Z,995.99
2023-10-13T17:04:35.182Z,996.02
2023-10-13T17:05:40.021Z,995.98
2023-10-13T17:06:35.135Z,996.01
2023-10-13T17:07:34.983Z,996.01
2023-10-13T17:08:34.983Z,996.03
2023-10-13T17:09:35.107Z,995.87
2023-10-13T17:10:35.033Z,995.92
2023-10-13T17:11:36.750Z,996.00
2023-10-13T17:12:34.945Z,995.95
2023-10-13T17:13:34.904Z,995.87
2023-10-13T17:14:34.891Z,995.93
2023-10-13T17:15:34.906Z,995.96
2023-10-13T17:16:39.972Z,995.90
2023-10-13T17:17:34.907Z,995.89
2023-10-13T17:18:34.882Z,995.88